sensor_id;sensor_type;location;lat;lon;timestamp;pressure;altitude;pressure_sealevel;temperature;humidity
62072;BME280;48031;48.542;13.232;2023-05-02T00:02:21;97291.19;;;18.76;52.76
62072;BME280;48031;48.542;13.232;2023-05-02T00:06:23;97286.38;;;18.41;54.68
62072;BME280;48031;48.542;13.232;2023-05-02T00:10:25;97284.56;;;18.50;54.30
62072;BME280;48031;48.542;13.232;2023-05-02T00:14:27;97282.63;;;18.37;54.71
62072;BME280;48031;48.542;13.232;2023-05-02T00:18:28;97283.53;;;18.46;54.77
62072;BME280;48031;48.542;13.232;2023-05-02T00:22:30;97289.41;;;17.47;57.82
62072;BME280;48031;48.542;13.232;2023-05-02T00:26:32;97283.00;;;17.70;57.35
62072;BME280;48031;48.542;13.232;2023-05-02T00:30:34;97274.53;;;18.13;55.79
62072;BME280;48031;48.542;13.232;2023-05-02T00:34:37;97274.53;;;17.99;55.90
62072;BME280;48031;48.542;13.232;2023-05-02T00:38:39;97282.44;;;17.36;58.01
62072;BME280;48031;48.542;13.232;2023-05-02T00:42:40;97273.09;;;17.88;56.83
62072;BME280;48031;48.542;13.232;2023-05-02T00:46:42;97277.53;;;17.84;57.11
62072;BME280;48031;48.542;13.232;2023-05-02T00:50:44;97283.41;;;17.64;57.89
62072;BME280;48031;48.542;13.232;2023-05-02T00:54:46;97276.72;;;17.83;57.40
62072;BME280;48031;48.542;13.232;2023-05-02T00:58:48;97282.66;;;17.91;57.17
62072;BME280;48031;48.542;13.232;2023-05-02T01:02:57;97287.78;;;17.65;58.75
62072;BME280;48031;48.542;13.232;2023-05-02T01:12:00;97283.91;;;18.12;56.90
62072;BME280;48031;48.542;13.232;2023-05-02T01:16:06;97288.75;;;17.55;58.32
62072;BME280;48031;48.542;13.232;2023-05-02T01:20:13;97287.69;;;17.70;57.76
62072;BME280;48031;48.542;13.232;2023-05-02T01:24:23;97306.16;;;17.45;58.71
62072;BME280;48031;48.542;13.232;2023-05-02T01:29:00;97291.25;;;17.52;58.86
62072;BME280;48031;48.542;13.232;2023-05-02T01:33:03;97298.75;;;17.46;58.20
62072;BME280;48031;48.542;13.232;2023-05-02T01:37:06;97302.19;;;17.19;59.05
62072;BME280;48031;48.542;13.232;2023-05-02T01:41:11;97313.38;;;17.23;58.90
62072;BME280;48031;48.542;13.232;2023-05-02T01:45:15;97319.13;;;17.40;58.57
62072;BME280;48031;48.542;13.232;2023-05-02T01:49:18;97322.03;;;17.11;59.06
62072;BME280;48031;48.542;13.232;2023-05-02T01:53:22;97318.69;;;17.52;57.99
62072;BME280;48031;48.542;13.232;2023-05-02T01:57:25;97312.63;;;17.17;58.84
62072;BME280;48031;48.542;13.232;2023-05-02T02:01:28;97319.59;;;16.91;59.51
62072;BME280;48031;48.542;13.232;2023-05-02T02:05:33;97321.44;;;17.52;57.63
62072;BME280;48031;48.542;13.232;2023-05-02T02:09:37;97316.47;;;17.35;57.80
62072;BME280;48031;48.542;13.232;2023-05-02T02:13:48;97319.47;;;17.38;58.03
62072;BME280;48031;48.542;13.232;2023-05-02T02:18:01;97326.13;;;17.32;58.00
62072;BME280;48031;48.542;13.232;2023-05-02T02:22:06;97325.19;;;17.56;56.52
62072;BME280;48031;48.542;13.232;2023-05-02T02:26:08;97332.84;;;17.02;58.04
62072;BME280;48031;48.542;13.232;2023-05-02T02:30:11;97326.78;;;16.87;58.21
62072;BME280;48031;48.542;13.232;2023-05-02T02:34:12;97330.44;;;16.53;59.16
62072;BME280;48031;48.542;13.232;2023-05-02T02:38:53;97333.63;;;17.27;57.71
62072;BME280;48031;48.542;13.232;2023-05-02T02:43:19;97332.34;;;17.19;57.37
62072;BME280;48031;48.542;13.232;2023-05-02T02:47:40;97341.16;;;17.35;56.53
62072;BME280;48031;48.542;13.232;2023-05-02T02:51:44;97335.28;;;16.61;58.13
62072;BME280;48031;48.542;13.232;2023-05-02T02:55:56;97346.34;;;17.18;57.26
62072;BME280;48031;48.542;13.232;2023-05-02T03:00:19;97349.16;;;17.13;57.06
62072;BME280;48031;48.542;13.232;2023-05-02T03:04:22;97346.66;;;16.74;57.64
62072;BME280;48031;48.542;13.232;2023-05-02T03:08:25;97345.16;;;16.62;57.46
62072;BME280;48031;48.542;13.232;2023-05-02T03:12:27;97344.66;;;16.60;57.36
62072;BME280;48031;48.542;13.232;2023-05-02T03:16:37;97360.06;;;16.99;56.65
62072;BME280;48031;48.542;13.232;2023-05-02T03:20:44;97354.00;;;16.54;57.78
62072;BME280;48031;48.542;13.232;2023-05-02T03:24:46;97350.78;;;16.47;57.99
62072;BME280;48031;48.542;13.232;2023-05-02T03:28:49;97363.22;;;16.63;57.39
62072;BME280;48031;48.542;13.232;2023-05-02T03:32:58;97363.47;;;16.67;57.10
62072;BME280;48031;48.542;13.232;2023-05-02T03:37:01;97363.00;;;16.60;57.27
62072;BME280;48031;48.542;13.232;2023-05-02T03:41:04;97365.22;;;16.82;56.21
62072;BME280;48031;48.542;13.232;2023-05-02T03:45:07;97370.97;;;17.04;56.63
62072;BME280;48031;48.542;13.232;2023-05-02T03:49:10;97379.13;;;17.09;55.79
62072;BME280;48031;48.542;13.232;2023-05-02T03:53:15;97384.25;;;17.16;55.60
62072;BME280;48031;48.542;13.232;2023-05-02T03:57:25;97382.69;;;17.28;55.25
62072;BME280;48031;48.542;13.232;2023-05-02T04:01:31;97393.75;;;17.42;54.93
62072;BME280;48031;48.542;13.232;2023-05-02T04:05:35;97399.72;;;17.07;56.03
62072;BME280;48031;48.542;13.232;2023-05-02T04:09:37;97404.50;;;17.20;56.01
62072;BME280;48031;48.542;13.232;2023-05-02T04:13:42;97402.53;;;17.44;55.13
62072;BME280;48031;48.542;13.232;2023-05-02T04:17:46;97414.44;;;17.34;55.78
62072;BME280;48031;48.542;13.232;2023-05-02T04:21:49;97416.53;;;17.42;55.54
62072;BME280;48031;48.542;13.232;2023-05-02T04:25:54;97421.25;;;17.61;55.47
62072;BME280;48031;48.542;13.232;2023-05-02T04:30:05;97430.47;;;17.27;56.43
62072;BME280;48031;48.542;13.232;2023-05-02T04:34:07;97438.09;;;17.30;56.03
62072;BME280;48031;48.542;13.232;2023-05-02T04:38:15;97435.53;;;17.58;55.27
62072;BME280;48031;48.542;13.232;2023-05-02T04:42:19;97436.91;;;17.36;55.71
62072;BME280;48031;48.542;13.232;2023-05-02T04:46:33;97448.34;;;17.43;55.52
62072;BME280;48031;48.542;13.232;2023-05-02T04:50:35;97446.13;;;17.45;55.67
62072;BME280;48031;48.542;13.232;2023-05-02T04:54:37;97462.38;;;17.42;55.76
62072;BME280;48031;48.542;13.232;2023-05-02T04:58:39;97452.94;;;17.48;55.76
62072;BME280;48031;48.542;13.232;2023-05-02T05:02:43;97459.19;;;17.54;55.48
62072;BME280;48031;48.542;13.232;2023-05-02T05:06:47;97467.34;;;17.16;56.24
62072;BME280;48031;48.542;13.232;2023-05-02T05:10:53;97465.31;;;17.03;56.23
62072;BME280;48031;48.542;13.232;2023-05-02T05:14:56;97477.34;;;16.78;57.44
62072;BME280;48031;48.542;13.232;2023-05-02T05:19:00;97476.09;;;16.71;58.02
62072;BME280;48031;48.542;13.232;2023-05-02T05:23:02;97485.00;;;17.29;56.35
62072;BME280;48031;48.542;13.232;2023-05-02T05:27:04;97490.50;;;17.29;55.83
62072;BME280;48031;48.542;13.232;2023-05-02T05:31:08;97498.09;;;17.61;55.24
62072;BME280;48031;48.542;13.232;2023-05-02T05:35:11;97495.28;;;17.18;56.43
62072;BME280;48031;48.542;13.232;2023-05-02T05:39:14;97504.69;;;17.12;56.04
62072;BME280;48031;48.542;13.232;2023-05-02T05:43:18;97501.81;;;17.46;55.37
62072;BME280;48031;48.542;13.232;2023-05-02T05:47:20;97512.44;;;17.53;54.35
62072;BME280;48031;48.542;13.232;2023-05-02T05:51:24;97518.44;;;17.60;54.38
62072;BME280;48031;48.542;13.232;2023-05-02T05:55:31;97516.50;;;18.35;52.58
62072;BME280;48031;48.542;13.232;2023-05-02T05:59:34;97524.53;;;17.75;53.90
62072;BME280;48031;48.542;13.232;2023-05-02T06:03:38;97536.22;;;18.05;53.13
62072;BME280;48031;48.542;13.232;2023-05-02T06:07:40;97532.72;;;17.99;52.95
62072;BME280;48031;48.542;13.232;2023-05-02T06:11:42;97542.06;;;18.17;52.47
62072;BME280;48031;48.542;13.232;2023-05-02T06:15:44;97538.34;;;18.08;52.68
62072;BME280;48031;48.542;13.232;2023-05-02T06:19:46;97550.38;;;18.31;52.47
62072;BME280;48031;48.542;13.232;2023-05-02T06:23:48;97554.16;;;18.35;52.50
62072;BME280;48031;48.542;13.232;2023-05-02T06:27:50;97553.03;;;18.17;52.99
62072;BME280;48031;48.542;13.232;2023-05-02T06:31:54;97563.38;;;18.95;50.96
62072;BME280;48031;48.542;13.232;2023-05-02T06:35:56;97568.78;;;18.49;51.52
62072;BME280;48031;48.542;13.232;2023-05-02T06:40:01;97571.25;;;18.69;51.71
62072;BME280;48031;48.542;13.232;2023-05-02T06:44:04;97574.78;;;18.88;50.93
62072;BME280;48031;48.542;13.232;2023-05-02T06:48:06;97574.16;;;18.59;51.58
62072;BME280;48031;48.542;13.232;2023-05-02T06:52:08;97589.34;;;18.89;51.26
62072;BME280;48031;48.542;13.232;2023-05-02T06:56:10;97589.53;;;19.25;50.26
62072;BME280;48031;48.542;13.232;2023-05-02T07:00:13;97578.16;;;18.99;50.11
62072;BME280;48031;48.542;13.232;2023-05-02T07:04:15;97585.94;;;19.24;49.64
62072;BME280;48031;48.542;13.232;2023-05-02T07:08:17;97587.69;;;19.34;49.16
62072;BME280;48031;48.542;13.232;2023-05-02T07:12:19;97589.41;;;19.76;47.46
62072;BME280;48031;48.542;13.232;2023-05-02T07:16:21;97589.91;;;19.64;48.72
62072;BME280;48031;48.542;13.232;2023-05-02T07:20:23;97585.19;;;19.92;47.69
62072;BME280;48031;48.542;13.232;2023-05-02T07:24:25;97585.16;;;20.33;47.33
62072;BME280;48031;48.542;13.232;2023-05-02T07:28:26;97589.59;;;19.79;48.50
62072;BME280;48031;48.542;13.232;2023-05-02T07:32:29;97581.91;;;20.04;47.58
62072;BME280;48031;48.542;13.232;2023-05-02T07:36:32;97582.63;;;20.09;47.74
62072;BME280;48031;48.542;13.232;2023-05-02T07:40:33;97579.00;;;20.36;46.74
62072;BME280;48031;48.542;13.232;2023-05-02T07:44:35;97585.53;;;20.40;46.31
62072;BME280;48031;48.542;13.232;2023-05-02T07:48:37;97584.44;;;20.63;46.38
62072;BME280;48031;48.542;13.232;2023-05-02T07:52:39;97589.91;;;20.55;46.75
62072;BME280;48031;48.542;13.232;2023-05-02T07:56:41;97580.44;;;20.69;46.53
62072;BME280;48031;48.542;13.232;2023-05-02T08:00:43;97590.59;;;20.60;46.22
62072;BME280;48031;48.542;13.232;2023-05-02T08:04:46;97594.72;;;20.49;46.82
62072;BME280;48031;48.542;13.232;2023-05-02T08:08:48;97593.69;;;20.45;46.02
62072;BME280;48031;48.542;13.232;2023-05-02T08:12:50;97594.94;;;20.25;45.99
62072;BME280;48031;48.542;13.232;2023-05-02T08:16:52;97597.66;;;20.53;45.92
62072;BME280;48031;48.542;13.232;2023-05-02T08:20:54;97602.81;;;20.68;46.56
62072;BME280;48031;48.542;13.232;2023-05-02T08:24:57;97609.84;;;20.96;46.62
62072;BME280;48031;48.542;13.232;2023-05-02T08:28:59;97605.91;;;21.11;45.91
62072;BME280;48031;48.542;13.232;2023-05-02T08:33:00;97605.78;;;21.16;45.55
62072;BME280;48031;48.542;13.232;2023-05-02T08:37:07;97611.00;;;21.48;45.37
62072;BME280;48031;48.542;13.232;2023-05-02T08:41:13;97613.94;;;21.21;45.62
62072;BME280;48031;48.542;13.232;2023-05-02T08:45:15;97622.75;;;21.23;45.53
62072;BME280;48031;48.542;13.232;2023-05-02T08:49:19;97632.31;;;21.26;45.54
62072;BME280;48031;48.542;13.232;2023-05-02T08:53:22;97628.88;;;21.20;45.54
62072;BME280;48031;48.542;13.232;2023-05-02T08:57:27;97637.66;;;21.22;45.74
62072;BME280;48031;48.542;13.232;2023-05-02T09:01:30;97642.06;;;20.65;45.57
62072;BME280;48031;48.542;13.232;2023-05-02T09:05:39;97641.16;;;21.36;45.09
62072;BME280;48031;48.542;13.232;2023-05-02T09:09:41;97650.03;;;20.66;46.25
62072;BME280;48031;48.542;13.232;2023-05-02T09:13:45;97656.19;;;21.22;45.74
62072;BME280;48031;48.542;13.232;2023-05-02T09:17:47;97656.72;;;21.32;45.24
62072;BME280;48031;48.542;13.232;2023-05-02T09:21:49;97660.81;;;20.77;45.54
62072;BME280;48031;48.542;13.232;2023-05-02T09:25:51;97665.53;;;20.62;46.00
62072;BME280;48031;48.542;13.232;2023-05-02T09:34:21;97662.28;;;20.96;45.51
62072;BME280;48031;48.542;13.232;2023-05-02T09:38:23;97662.31;;;21.19;44.84
62072;BME280;48031;48.542;13.232;2023-05-02T09:42:32;97668.97;;;21.71;44.21
62072;BME280;48031;48.542;13.232;2023-05-02T09:46:39;97670.06;;;21.61;44.16
62072;BME280;48031;48.542;13.232;2023-05-02T09:50:41;97665.44;;;21.26;44.81
62072;BME280;48031;48.542;13.232;2023-05-02T09:54:43;97663.34;;;21.09;45.14
62072;BME280;48031;48.542;13.232;2023-05-02T09:58:47;97677.56;;;21.38;44.32
62072;BME280;48031;48.542;13.232;2023-05-02T10:02:49;97678.00;;;21.63;43.96
62072;BME280;48031;48.542;13.232;2023-05-02T10:06:53;97676.59;;;21.65;44.03
62072;BME280;48031;48.542;13.232;2023-05-02T10:10:57;97675.31;;;21.71;43.62
62072;BME280;48031;48.542;13.232;2023-05-02T10:15:02;97675.06;;;22.21;42.46
62072;BME280;48031;48.542;13.232;2023-05-02T10:19:08;97680.75;;;22.24;44.07
62072;BME280;48031;48.542;13.232;2023-05-02T10:23:11;97674.97;;;21.95;43.36
62072;BME280;48031;48.542;13.232;2023-05-02T10:27:13;97669.00;;;21.18;43.95
62072;BME280;48031;48.542;13.232;2023-05-02T10:31:16;97679.38;;;20.35;45.89
62072;BME280;48031;48.542;13.232;2023-05-02T10:35:19;97676.63;;;21.07;44.22
62072;BME280;48031;48.542;13.232;2023-05-02T10:39:21;97678.50;;;20.75;45.24
62072;BME280;48031;48.542;13.232;2023-05-02T10:43:31;97676.66;;;21.82;44.35
62072;BME280;48031;48.542;13.232;2023-05-02T10:47:34;97664.66;;;21.87;43.93
62072;BME280;48031;48.542;13.232;2023-05-02T10:51:40;97668.50;;;22.56;42.48
62072;BME280;48031;48.542;13.232;2023-05-02T10:55:43;97667.97;;;22.46;43.50
62072;BME280;48031;48.542;13.232;2023-05-02T10:59:44;97665.38;;;22.58;42.96
62072;BME280;48031;48.542;13.232;2023-05-02T11:03:59;97672.28;;;23.03;42.57
62072;BME280;48031;48.542;13.232;2023-05-02T11:12:45;97674.53;;;23.36;42.41
62072;BME280;48031;48.542;13.232;2023-05-02T11:21:25;97677.66;;;23.34;41.83
62072;BME280;48031;48.542;13.232;2023-05-02T11:25:31;97688.16;;;21.98;44.83
62072;BME280;48031;48.542;13.232;2023-05-02T11:29:53;97681.09;;;23.05;43.10
62072;BME280;48031;48.542;13.232;2023-05-02T11:33:56;97680.69;;;22.64;42.89
62072;BME280;48031;48.542;13.232;2023-05-02T11:38:03;97683.56;;;22.42;44.31
62072;BME280;48031;48.542;13.232;2023-05-02T11:42:05;97687.25;;;23.37;42.53
62072;BME280;48031;48.542;13.232;2023-05-02T11:46:07;97680.41;;;23.26;42.60
62072;BME280;48031;48.542;13.232;2023-05-02T11:50:09;97681.06;;;23.14;42.56
62072;BME280;48031;48.542;13.232;2023-05-02T11:54:19;97673.09;;;22.95;42.72
62072;BME280;48031;48.542;13.232;2023-05-02T11:58:23;97684.91;;;22.53;43.60
62072;BME280;48031;48.542;13.232;2023-05-02T12:02:46;97689.63;;;23.81;41.52
62072;BME280;48031;48.542;13.232;2023-05-02T12:06:56;97681.06;;;23.48;41.66
62072;BME280;48031;48.542;13.232;2023-05-02T12:10:58;97687.56;;;23.44;41.77
62072;BME280;48031;48.542;13.232;2023-05-02T12:15:07;97680.09;;;22.84;42.22
62072;BME280;48031;48.542;13.232;2023-05-02T12:19:11;97683.34;;;23.20;42.25
62072;BME280;48031;48.542;13.232;2023-05-02T12:23:13;97686.78;;;23.35;41.68
62072;BME280;48031;48.542;13.232;2023-05-02T12:27:15;97683.75;;;23.83;40.72
62072;BME280;48031;48.542;13.232;2023-05-02T12:31:17;97688.34;;;23.70;40.72
62072;BME280;48031;48.542;13.232;2023-05-02T12:35:20;97688.00;;;23.80;41.45
62072;BME280;48031;48.542;13.232;2023-05-02T12:39:40;97685.47;;;24.42;39.59
62072;BME280;48031;48.542;13.232;2023-05-02T12:43:46;97686.28;;;24.43;40.00
62072;BME280;48031;48.542;13.232;2023-05-02T12:47:48;97694.22;;;23.77;39.78
62072;BME280;48031;48.542;13.232;2023-05-02T12:51:52;97695.88;;;24.08;39.67
62072;BME280;48031;48.542;13.232;2023-05-02T12:56:02;97692.78;;;24.47;37.94
62072;BME280;48031;48.542;13.232;2023-05-02T13:00:06;97699.16;;;24.18;38.91
62072;BME280;48031;48.542;13.232;2023-05-02T13:04:08;97701.72;;;24.15;39.21
62072;BME280;48031;48.542;13.232;2023-05-02T13:08:09;97698.34;;;23.54;39.50
62072;BME280;48031;48.542;13.232;2023-05-02T13:12:11;97693.44;;;23.25;40.56
62072;BME280;48031;48.542;13.232;2023-05-02T13:16:13;97695.25;;;23.12;39.62
62072;BME280;48031;48.542;13.232;2023-05-02T13:20:15;97699.91;;;22.69;40.13
62072;BME280;48031;48.542;13.232;2023-05-02T13:24:17;97691.31;;;23.31;39.91
62072;BME280;48031;48.542;13.232;2023-05-02T13:28:19;97689.69;;;23.30;39.68
62072;BME280;48031;48.542;13.232;2023-05-02T13:32:20;97695.53;;;23.71;38.69
62072;BME280;48031;48.542;13.232;2023-05-02T13:36:22;97698.78;;;23.73;40.24
62072;BME280;48031;48.542;13.232;2023-05-02T13:40:25;97690.94;;;23.84;39.81
62072;BME280;48031;48.542;13.232;2023-05-02T13:44:26;97690.84;;;22.94;40.21
62072;BME280;48031;48.542;13.232;2023-05-02T13:48:28;97695.22;;;23.30;40.59
62072;BME280;48031;48.542;13.232;2023-05-02T13:52:30;97697.00;;;23.43;40.41
62072;BME280;48031;48.542;13.232;2023-05-02T13:56:32;97708.19;;;22.69;40.87
62072;BME280;48031;48.542;13.232;2023-05-02T14:00:34;97710.41;;;21.71;40.38
62072;BME280;48031;48.542;13.232;2023-05-02T14:04:36;97701.97;;;21.67;40.25
62072;BME280;48031;48.542;13.232;2023-05-02T14:08:37;97706.91;;;21.79;40.56
62072;BME280;48031;48.542;13.232;2023-05-02T14:12:39;97705.78;;;21.57;41.80
62072;BME280;48031;48.542;13.232;2023-05-02T14:16:41;97715.28;;;21.74;41.96
62072;BME280;48031;48.542;13.232;2023-05-02T14:20:43;97707.38;;;21.81;41.63
62072;BME280;48031;48.542;13.232;2023-05-02T14:24:45;97702.13;;;21.40;43.18
62072;BME280;48031;48.542;13.232;2023-05-02T14:28:46;97708.19;;;21.50;43.37
62072;BME280;48031;48.542;13.232;2023-05-02T14:32:48;97705.03;;;21.66;42.83
62072;BME280;48031;48.542;13.232;2023-05-02T14:36:50;97705.44;;;21.50;42.98
62072;BME280;48031;48.542;13.232;2023-05-02T14:40:52;97702.56;;;21.33;43.34
62072;BME280;48031;48.542;13.232;2023-05-02T14:44:54;97701.53;;;22.05;42.60
62072;BME280;48031;48.542;13.232;2023-05-02T14:49:00;97704.75;;;21.76;42.58
62072;BME280;48031;48.542;13.232;2023-05-02T14:53:01;97708.75;;;21.92;42.40
62072;BME280;48031;48.542;13.232;2023-05-02T14:57:03;97704.09;;;21.48;42.74
62072;BME280;48031;48.542;13.232;2023-05-02T15:01:05;97707.59;;;21.84;41.67
62072;BME280;48031;48.542;13.232;2023-05-02T15:05:07;97699.75;;;21.78;42.29
62072;BME280;48031;48.542;13.232;2023-05-02T15:09:13;97703.44;;;21.95;41.12
62072;BME280;48031;48.542;13.232;2023-05-02T15:13:16;97698.53;;;21.39;42.23
62072;BME280;48031;48.542;13.232;2023-05-02T15:17:18;97706.25;;;21.51;41.64
62072;BME280;48031;48.542;13.232;2023-05-02T15:21:20;97710.78;;;22.00;40.84
62072;BME280;48031;48.542;13.232;2023-05-02T15:25:22;97701.44;;;22.35;40.23
62072;BME280;48031;48.542;13.232;2023-05-02T15:29:23;97717.59;;;22.03;40.09
62072;BME280;48031;48.542;13.232;2023-05-02T15:33:25;97723.50;;;21.87;40.87
62072;BME280;48031;48.542;13.232;2023-05-02T15:37:27;97722.44;;;21.97;41.41
62072;BME280;48031;48.542;13.232;2023-05-02T15:41:29;97731.13;;;21.82;41.76
62072;BME280;48031;48.542;13.232;2023-05-02T15:45:31;97738.44;;;21.78;42.06
62072;BME280;48031;48.542;13.232;2023-05-02T15:49:33;97728.94;;;21.70;42.65
62072;BME280;48031;48.542;13.232;2023-05-02T15:53:36;97741.53;;;21.85;43.05
62072;BME280;48031;48.542;13.232;2023-05-02T15:57:49;97741.47;;;21.68;42.40
62072;BME280;48031;48.542;13.232;2023-05-02T16:01:52;97739.84;;;21.97;41.80
62072;BME280;48031;48.542;13.232;2023-05-02T16:05:54;97751.81;;;21.84;42.64
62072;BME280;48031;48.542;13.232;2023-05-02T16:09:58;97751.59;;;21.81;43.05
62072;BME280;48031;48.542;13.232;2023-05-02T16:14:00;97745.69;;;21.74;42.94
62072;BME280;48031;48.542;13.232;2023-05-02T16:18:02;97751.47;;;21.86;43.36
62072;BME280;48031;48.542;13.232;2023-05-02T16:22:04;97762.34;;;21.82;44.49
62072;BME280;48031;48.542;13.232;2023-05-02T16:26:06;97772.41;;;21.78;44.25
62072;BME280;48031;48.542;13.232;2023-05-02T16:30:09;97767.09;;;21.90;43.80
62072;BME280;48031;48.542;13.232;2023-05-02T16:34:11;97779.13;;;21.64;44.18
62072;BME280;48031;48.542;13.232;2023-05-02T16:38:13;97776.59;;;21.53;44.92
62072;BME280;48031;48.542;13.232;2023-05-02T16:42:15;97795.53;;;21.24;45.13
62072;BME280;48031;48.542;13.232;2023-05-02T16:46:17;97791.78;;;21.42;44.80
62072;BME280;48031;48.542;13.232;2023-05-02T16:50:19;97797.25;;;21.34;45.05
62072;BME280;48031;48.542;13.232;2023-05-02T16:54:21;97807.41;;;21.11;45.11
62072;BME280;48031;48.542;13.232;2023-05-02T16:58:22;97820.31;;;20.74;46.26
62072;BME280;48031;48.542;13.232;2023-05-02T17:02:25;97820.88;;;19.33;54.36
62072;BME280;48031;48.542;13.232;2023-05-02T17:06:27;97831.56;;;18.55;55.86
62072;BME280;48031;48.542;13.232;2023-05-02T17:10:29;97834.16;;;17.83;58.42
62072;BME280;48031;48.542;13.232;2023-05-02T17:14:32;97827.34;;;18.10;60.17
62072;BME280;48031;48.542;13.232;2023-05-02T17:18:34;97822.91;;;18.85;55.66
62072;BME280;48031;48.542;13.232;2023-05-02T17:22:36;97813.66;;;19.00;55.76
62072;BME280;48031;48.542;13.232;2023-05-02T17:26:38;97813.09;;;18.79;57.55
62072;BME280;48031;48.542;13.232;2023-05-02T17:30:41;97827.91;;;18.83;57.29
62072;BME280;48031;48.542;13.232;2023-05-02T17:34:44;97830.44;;;18.98;56.55
62072;BME280;48031;48.542;13.232;2023-05-02T17:38:47;97830.88;;;18.87;55.86
62072;BME280;48031;48.542;13.232;2023-05-02T17:42:49;97829.16;;;18.91;55.68
62072;BME280;48031;48.542;13.232;2023-05-02T17:46:50;97830.63;;;19.26;56.68
62072;BME280;48031;48.542;13.232;2023-05-02T17:50:52;97850.59;;;19.13;56.28
62072;BME280;48031;48.542;13.232;2023-05-02T17:54:56;97848.09;;;19.16;56.67
62072;BME280;48031;48.542;13.232;2023-05-02T17:58:57;97855.97;;;19.04;56.32
62072;BME280;48031;48.542;13.232;2023-05-02T18:03:00;97865.19;;;19.13;55.62
62072;BME280;48031;48.542;13.232;2023-05-02T18:07:03;97871.06;;;19.06;55.66
62072;BME280;48031;48.542;13.232;2023-05-02T18:11:12;97875.94;;;19.52;55.28
62072;BME280;48031;48.542;13.232;2023-05-02T18:15:14;97880.44;;;19.05;55.67
62072;BME280;48031;48.542;13.232;2023-05-02T18:19:16;97882.06;;;19.06;55.90
62072;BME280;48031;48.542;13.232;2023-05-02T18:23:18;97892.69;;;18.94;56.09
62072;BME280;48031;48.542;13.232;2023-05-02T18:27:20;97908.25;;;18.80;56.33
62072;BME280;48031;48.542;13.232;2023-05-02T18:31:22;97907.38;;;18.85;55.98
62072;BME280;48031;48.542;13.232;2023-05-02T18:35:24;97912.28;;;18.64;56.25
62072;BME280;48031;48.542;13.232;2023-05-02T18:39:29;97912.16;;;18.74;56.17
62072;BME280;48031;48.542;13.232;2023-05-02T18:43:31;97918.66;;;18.59;56.46
62072;BME280;48031;48.542;13.232;2023-05-02T18:47:34;97924.53;;;18.48;56.62
62072;BME280;48031;48.542;13.232;2023-05-02T18:51:37;97928.97;;;18.44;56.88
62072;BME280;48031;48.542;13.232;2023-05-02T18:55:39;97932.44;;;18.25;57.77
62072;BME280;48031;48.542;13.232;2023-05-02T18:59:41;97940.25;;;17.74;58.45
62072;BME280;48031;48.542;13.232;2023-05-02T19:03:42;97937.28;;;18.05;57.51
62072;BME280;48031;48.542;13.232;2023-05-02T19:07:45;97946.34;;;17.56;57.24
62072;BME280;48031;48.542;13.232;2023-05-02T19:11:46;97942.28;;;17.98;56.49
62072;BME280;48031;48.542;13.232;2023-05-02T19:15:48;97933.66;;;17.75;56.00
62072;BME280;48031;48.542;13.232;2023-05-02T19:19:50;97936.13;;;17.77;55.32
62072;BME280;48031;48.542;13.232;2023-05-02T19:23:52;97937.50;;;18.08;55.09
62072;BME280;48031;48.542;13.232;2023-05-02T19:27:56;97946.78;;;18.17;55.11
62072;BME280;48031;48.542;13.232;2023-05-02T19:31:58;97943.31;;;18.36;54.75
62072;BME280;48031;48.542;13.232;2023-05-02T19:36:00;97944.72;;;18.33;54.92
62072;BME280;48031;48.542;13.232;2023-05-02T19:40:02;97956.53;;;18.34;54.54
62072;BME280;48031;48.542;13.232;2023-05-02T19:44:05;97958.13;;;18.40;54.16
62072;BME280;48031;48.542;13.232;2023-05-02T19:48:07;97959.41;;;18.18;54.71
62072;BME280;48031;48.542;13.232;2023-05-02T19:52:09;97958.53;;;18.23;54.19
62072;BME280;48031;48.542;13.232;2023-05-02T19:56:11;97963.56;;;18.16;54.52
62072;BME280;48031;48.542;13.232;2023-05-02T20:00:13;97963.34;;;18.07;54.72
62072;BME280;48031;48.542;13.232;2023-05-02T20:04:15;97969.34;;;18.14;54.25
62072;BME280;48031;48.542;13.232;2023-05-02T20:08:16;97961.13;;;18.09;54.84
62072;BME280;48031;48.542;13.232;2023-05-02T20:12:18;97969.41;;;18.04;54.54
62072;BME280;48031;48.542;13.232;2023-05-02T20:16:20;97967.19;;;18.06;54.26
62072;BME280;48031;48.542;13.232;2023-05-02T20:20:23;97973.34;;;17.93;54.93
62072;BME280;48031;48.542;13.232;2023-05-02T20:24:25;97974.59;;;18.11;54.37
62072;BME280;48031;48.542;13.232;2023-05-02T20:28:27;97975.13;;;17.74;55.52
62072;BME280;48031;48.542;13.232;2023-05-02T20:32:29;97964.00;;;17.94;55.32
62072;BME280;48031;48.542;13.232;2023-05-02T20:36:31;97973.06;;;17.90;55.07
62072;BME280;48031;48.542;13.232;2023-05-02T20:40:37;97979.81;;;18.07;55.54
62072;BME280;48031;48.542;13.232;2023-05-02T20:44:39;97981.31;;;17.90;54.79
62072;BME280;48031;48.542;13.232;2023-05-02T20:48:42;97992.53;;;17.98;54.43
62072;BME280;48031;48.542;13.232;2023-05-02T20:52:44;97984.06;;;17.90;54.16
62072;BME280;48031;48.542;13.232;2023-05-02T20:56:46;97989.31;;;17.86;54.09
62072;BME280;48031;48.542;13.232;2023-05-02T21:00:48;97986.03;;;17.84;54.03
62072;BME280;48031;48.542;13.232;2023-05-02T21:04:53;97984.72;;;17.76;54.55
62072;BME280;48031;48.542;13.232;2023-05-02T21:08:56;97996.84;;;17.70;54.48
62072;BME280;48031;48.542;13.232;2023-05-02T21:12:58;97999.34;;;17.62;54.58
62072;BME280;48031;48.542;13.232;2023-05-02T21:17:00;97988.88;;;17.69;54.72
62072;BME280;48031;48.542;13.232;2023-05-02T21:21:02;97984.78;;;17.56;54.96
62072;BME280;48031;48.542;13.232;2023-05-02T21:25:04;97989.41;;;17.71;54.62
62072;BME280;48031;48.542;13.232;2023-05-02T21:29:06;97999.88;;;17.64;54.52
62072;BME280;48031;48.542;13.232;2023-05-02T21:33:08;98003.53;;;17.44;55.93